TIST/STT METAR and TAF weather

Enter ICAO airport designator
Station Type Date Time Source
TIST METAR 2021/07/24 07:53 UTC NOAA

TIST 240753Z AUTO 00000KT 10SM FEW020 SCT038 OVC060 27/24 A2994 RMK AO2 RAB14E53 SLP138 P0008 T02720244 $


Station Type Date Time Source
TIST Decoded METAR 2021/07/24 07:53 UTC NOAA

Charlotte Amalie St. Thomas, Cyril E. King Airport, Virgin Islands (TIST) 18-20N 064-59W
Jul 24, 2021 - 03:53 AM EDT / 2021.07.24 0753 UTC
Wind: Calm:0
Visibility: 10 mile(s):0
Sky conditions: overcast
Precipitation last hour: 0.08 inches
Temperature: 81.0 F (27.2 C)
Dew Point: 75.9 F (24.4 C)
Relative Humidity: 84%
Pressure (altimeter): 29.94 in. Hg (1013 hPa)
ob: TIST 240753Z AUTO 00000KT 10SM FEW020 SCT038 OVC060 27/24 A2994 RMK AO2 RAB14E53 SLP138 P0008 T02720244
cycle: 8

Station Type Date Time Source
TIST TAF 2021/08/01 18:30 UTC NOAA

TAF TIST 011726Z 0118/0218 08013KT P6SM VCSH SCT025
FM012300 07006KT P6SM FEW030
FM021300 10012KT P6SM FEW025 SCT035

Example: see airport list